createdAt,value
2022-09-07T00:00:27.978Z,100.00
2022-09-07T00:02:29.821Z,100.00
2022-09-07T00:04:31.683Z,100.00
2022-09-07T00:06:33.664Z,100.00
2022-09-07T00:08:35.476Z,100.00
2022-09-07T00:10:37.626Z,100.00
2022-09-07T00:12:40.036Z,100.00
2022-09-07T00:14:41.848Z,100.00
2022-09-07T00:16:43.626Z,100.00
2022-09-07T00:18:46.433Z,100.00
2022-09-07T00:20:59.022Z,100.00
2022-09-07T00:23:00.815Z,100.00
2022-09-07T00:25:02.855Z,100.00
2022-09-07T00:27:04.804Z,100.00
2022-09-07T00:29:06.605Z,100.00
2022-09-07T00:31:15.417Z,100.00
2022-09-07T00:33:17.268Z,100.00
2022-09-07T00:35:19.096Z,100.00
2022-09-07T00:37:20.960Z,100.00
2022-09-07T00:39:22.735Z,100.00
2022-09-07T00:41:24.863Z,100.00
2022-09-07T00:43:54.155Z,100.00
2022-09-07T00:45:56.248Z,100.00
2022-09-07T00:48:17.587Z,100.00
2022-09-07T00:50:40.145Z,100.00
2022-09-07T00:52:44.687Z,100.00
2022-09-07T00:54:51.243Z,100.00
2022-09-07T00:56:54.012Z,100.00
2022-09-07T00:58:56.531Z,100.00
2022-09-07T01:00:58.332Z,100.00
2022-09-07T01:03:01.535Z,100.00
2022-09-07T01:05:41.438Z,100.00
2022-09-07T01:07:44.067Z,100.00
2022-09-07T01:09:47.336Z,100.00
2022-09-07T01:11:50.758Z,100.00
2022-09-07T01:13:54.047Z,100.00
2022-09-07T01:16:17.023Z,100.00
2022-09-07T01:18:55.551Z,100.00
2022-09-07T01:21:21.457Z,100.00
2022-09-07T01:23:52.207Z,100.00
2022-09-07T01:26:32.294Z,100.00
2022-09-07T01:28:35.563Z,100.00
2022-09-07T01:30:39.693Z,100.00
2022-09-07T01:32:53.563Z,100.00
2022-09-07T01:34:55.367Z,100.00
2022-09-07T01:37:21.427Z,100.00
2022-09-07T01:39:29.704Z,100.00
2022-09-07T01:41:50.305Z,100.00
2022-09-07T01:44:12.225Z,100.00
2022-09-07T01:46:29.778Z,100.00
2022-09-07T01:48:33.817Z,100.00
2022-09-07T01:50:45.604Z,100.00
2022-09-07T01:53:12.044Z,100.00
2022-09-07T01:55:18.983Z,100.00
2022-09-07T01:57:32.259Z,100.00
2022-09-07T01:59:48.622Z,100.00
2022-09-07T02:02:04.327Z,100.00
2022-09-07T02:04:11.450Z,100.00
2022-09-07T02:06:48.704Z,100.00
2022-09-07T02:09:05.031Z,100.00
2022-09-07T02:11:28.825Z,100.00
2022-09-07T02:13:40.376Z,100.00
2022-09-07T02:15:48.048Z,100.00
2022-09-07T02:17:56.127Z,100.00
2022-09-07T02:20:06.474Z,100.00
2022-09-07T02:22:13.719Z,100.00
2022-09-07T02:24:25.274Z,100.00
2022-09-07T02:26:28.894Z,100.00
2022-09-07T02:28:33.568Z,100.00
2022-09-07T02:30:35.475Z,100.00
2022-09-07T02:32:37.518Z,100.00
2022-09-07T02:34:39.403Z,100.00
2022-09-07T02:36:46.000Z,100.00
2022-09-07T02:38:47.835Z,100.00
2022-09-07T02:40:51.640Z,100.00
2022-09-07T02:42:53.545Z,100.00
2022-09-07T02:44:55.720Z,100.00
2022-09-07T02:47:35.864Z,100.00
2022-09-07T02:50:16.212Z,100.00
2022-09-07T02:52:36.024Z,100.00
2022-09-07T02:55:07.335Z,100.00
2022-09-07T02:57:16.015Z,100.00
2022-09-07T02:59:46.708Z,100.00
2022-09-07T03:02:02.486Z,100.00
2022-09-07T03:04:19.391Z,100.00
2022-09-07T03:06:30.813Z,100.00
2022-09-07T03:08:38.420Z,100.00
2022-09-07T03:10:41.459Z,100.00
2022-09-07T03:12:46.695Z,100.00
2022-09-07T03:14:48.523Z,100.00
2022-09-07T03:16:53.708Z,100.00
2022-09-07T03:18:55.528Z,100.00
2022-09-07T03:20:57.611Z,100.00
2022-09-07T03:22:59.475Z,100.00
2022-09-07T03:25:01.361Z,100.00
2022-09-07T03:27:03.240Z,100.00
2022-09-07T03:29:05.106Z,100.00
2022-09-07T03:31:06.893Z,100.00
2022-09-07T03:33:08.724Z,100.00
2022-09-07T03:35:10.722Z,100.00
2022-09-07T03:37:12.506Z,100.00
2022-09-07T03:39:14.318Z,100.00
2022-09-07T03:41:16.199Z,100.00
2022-09-07T03:43:17.993Z,100.00
2022-09-07T03:45:19.887Z,100.00
2022-09-07T03:47:21.660Z,100.00
2022-09-07T03:49:23.499Z,100.00
2022-09-07T03:51:25.582Z,100.00
2022-09-07T03:53:27.865Z,100.00
2022-09-07T03:55:29.675Z,100.00
2022-09-07T03:57:31.576Z,100.00
2022-09-07T03:59:33.466Z,100.00
2022-09-07T04:01:35.321Z,100.00
2022-09-07T04:03:38.173Z,100.00
2022-09-07T04:05:39.979Z,100.00
2022-09-07T04:07:41.742Z,100.00
2022-09-07T04:09:43.615Z,100.00
2022-09-07T04:11:45.415Z,100.00
2022-09-07T04:13:47.250Z,100.00
2022-09-07T04:15:53.366Z,100.00
2022-09-07T04:17:55.736Z,100.00
2022-09-07T04:19:57.506Z,100.00
2022-09-07T04:21:59.439Z,100.00
2022-09-07T04:24:01.363Z,100.00
2022-09-07T04:26:03.176Z,100.00
2022-09-07T04:28:05.158Z,100.00
2022-09-07T04:30:07.542Z,100.00
2022-09-07T04:32:12.388Z,100.00
2022-09-07T04:34:16.911Z,100.00
2022-09-07T04:36:19.636Z,100.00
2022-09-07T04:38:21.448Z,100.00
2022-09-07T04:40:23.244Z,100.00
2022-09-07T04:42:25.024Z,100.00
2022-09-07T04:44:26.842Z,100.00
2022-09-07T04:46:33.362Z,100.00
2022-09-07T04:48:35.247Z,100.00
2022-09-07T04:50:37.006Z,100.00
2022-09-07T04:52:38.825Z,100.00
2022-09-07T04:54:40.630Z,100.00
2022-09-07T04:56:42.389Z,100.00
2022-09-07T04:58:45.438Z,100.00
2022-09-07T05:00:47.294Z,100.00
2022-09-07T05:02:49.471Z,100.00
2022-09-07T05:04:51.417Z,100.00
2022-09-07T05:06:54.450Z,100.00
2022-09-07T05:08:58.257Z,100.00
2022-09-07T05:11:00.015Z,100.00
2022-09-07T05:13:01.888Z,97.56
2022-09-07T05:15:04.824Z,95.98
2022-09-07T05:17:06.591Z,91.20
2022-09-07T05:19:12.242Z,84.53
2022-09-07T05:21:16.432Z,78.17
2022-09-07T05:23:18.316Z,77.20
2022-09-07T05:25:20.171Z,72.43
2022-09-07T05:27:21.963Z,74.82
2022-09-07T05:31:45.801Z,73.16
2022-09-07T05:36:11.458Z,72.08
2022-09-07T05:38:13.222Z,70.26
2022-09-07T05:40:15.283Z,69.78
2022-09-07T05:42:17.099Z,70.53
2022-09-07T05:46:40.733Z,67.13
2022-09-07T05:48:44.277Z,64.56
2022-09-07T05:50:52.999Z,63.69
2022-09-07T05:52:54.816Z,64.21
2022-09-07T05:55:07.459Z,62.61
2022-09-07T05:57:18.379Z,61.74
2022-09-07T05:59:20.160Z,60.64
2022-09-07T06:01:21.936Z,60.53
2022-09-07T06:03:23.851Z,59.84
2022-09-07T06:05:25.738Z,58.58
2022-09-07T06:07:27.498Z,57.24
2022-09-07T06:09:30.726Z,58.88
2022-09-07T06:11:32.662Z,60.50
2022-09-07T06:13:34.923Z,62.11
2022-09-07T06:15:36.747Z,59.16
2022-09-07T06:17:38.710Z,60.50
2022-09-07T06:19:40.501Z,58.48
2022-09-07T06:21:42.277Z,58.12
2022-09-07T06:23:45.064Z,56.22
2022-09-07T06:25:50.420Z,56.21
2022-09-07T06:27:52.186Z,56.63
2022-09-07T06:29:54.282Z,55.64
2022-09-07T06:34:17.866Z,55.39
2022-09-07T06:36:24.227Z,55.77
2022-09-07T06:38:31.813Z,54.63
2022-09-07T06:40:34.136Z,55.43
2022-09-07T06:42:36.139Z,56.07
2022-09-07T06:44:37.921Z,53.79
2022-09-07T06:49:01.479Z,55.94
2022-09-07T06:51:20.386Z,54.92
2022-09-07T06:53:39.518Z,54.08
2022-09-07T06:55:45.179Z,52.17
2022-09-07T06:57:47.044Z,50.99
2022-09-07T06:59:48.818Z,49.17
2022-09-07T07:01:50.560Z,50.14
2022-09-07T07:03:54.094Z,49.54
2022-09-07T07:05:57.606Z,51.47
2022-09-07T07:07:59.286Z,49.91
2022-09-07T07:10:01.059Z,48.42
2022-09-07T07:12:03.109Z,47.27
2022-09-07T07:14:04.961Z,48.41
2022-09-07T07:16:17.123Z,48.26
2022-09-07T07:18:21.382Z,49.36
2022-09-07T07:20:23.324Z,51.46
2022-09-07T07:24:46.912Z,50.08
2022-09-07T07:26:48.766Z,49.23
2022-09-07T07:29:07.099Z,47.61
2022-09-07T07:31:13.012Z,47.83
2022-09-07T07:33:15.186Z,46.72
2022-09-07T07:35:17.058Z,46.42
2022-09-07T07:37:18.779Z,46.69
2022-09-07T07:42:00.309Z,46.45
2022-09-07T07:44:04.125Z,46.55
2022-09-07T07:46:06.787Z,44.91
2022-09-07T07:48:11.963Z,46.82
2022-09-07T07:54:59.578Z,47.20
2022-09-07T07:57:01.334Z,47.78
2022-09-07T07:59:03.131Z,50.08
2022-09-07T08:01:13.069Z,49.00
2022-09-07T08:03:14.925Z,47.71
2022-09-07T08:05:16.746Z,47.12
2022-09-07T08:07:19.504Z,46.81
2022-09-07T08:09:21.269Z,46.87
2022-09-07T08:11:22.999Z,46.73
2022-09-07T08:13:24.735Z,46.36
2022-09-07T08:15:26.501Z,47.60
2022-09-07T08:17:28.260Z,47.56
2022-09-07T08:19:30.021Z,46.38
2022-09-07T08:21:31.780Z,47.56
2022-09-07T08:23:33.904Z,45.89
2022-09-07T08:25:36.007Z,45.49
2022-09-07T08:27:37.744Z,45.61
2022-09-07T08:29:39.500Z,45.24
2022-09-07T08:31:41.305Z,44.92
2022-09-07T08:33:43.381Z,43.58
2022-09-07T08:35:56.266Z,44.39
2022-09-07T08:37:57.987Z,43.93
2022-09-07T08:39:59.763Z,43.84
2022-09-07T08:42:36.720Z,42.47
2022-09-07T08:45:04.554Z,42.19
2022-09-07T08:47:41.769Z,42.64
2022-09-07T08:49:49.942Z,42.30
2022-09-07T08:51:59.147Z,43.16
2022-09-07T08:54:01.590Z,43.58
2022-09-07T08:56:11.364Z,41.30
2022-09-07T08:58:32.602Z,40.61
2022-09-07T09:00:36.914Z,41.10
2022-09-07T09:02:43.939Z,41.48
2022-09-07T09:07:25.810Z,40.28
2022-09-07T09:09:55.431Z,40.65
2022-09-07T09:12:12.234Z,39.88
2022-09-07T09:16:55.100Z,39.46
2022-09-07T09:19:39.587Z,39.22
2022-09-07T09:21:42.223Z,39.55
2022-09-07T09:23:46.503Z,40.22
2022-09-07T09:26:02.367Z,40.82
2022-09-07T09:28:04.111Z,39.42
2022-09-07T09:30:18.723Z,40.56
2022-09-07T09:32:36.579Z,39.27
2022-09-07T09:34:38.381Z,39.25
2022-09-07T09:36:48.443Z,39.69
2022-09-07T09:38:50.218Z,39.27
2022-09-07T09:40:53.370Z,38.76
2022-09-07T09:43:24.799Z,38.73
2022-09-07T09:45:29.951Z,38.89
2022-09-07T09:47:35.150Z,38.22
2022-09-07T09:49:40.121Z,38.29
2022-09-07T09:54:24.643Z,37.06
2022-09-07T09:56:41.002Z,37.02
2022-09-07T10:01:27.253Z,37.19
2022-09-07T10:05:54.010Z,38.08
2022-09-07T10:07:55.830Z,37.58
2022-09-07T10:09:57.722Z,36.20
2022-09-07T10:12:08.828Z,36.22
2022-09-07T10:14:34.398Z,36.73
2022-09-07T10:16:42.900Z,36.55
2022-09-07T10:18:58.958Z,36.96
2022-09-07T10:21:18.833Z,35.86
2022-09-07T10:23:24.433Z,34.74
2022-09-07T10:25:40.418Z,34.83
2022-09-07T10:27:43.385Z,33.19
2022-09-07T10:29:45.180Z,33.82
2022-09-07T10:32:24.933Z,34.69
2022-09-07T10:34:46.321Z,34.67
2022-09-07T10:37:03.915Z,33.12
2022-09-07T10:39:15.098Z,32.92
2022-09-07T10:41:20.422Z,33.90
2022-09-07T10:43:48.302Z,34.52
2022-09-07T10:46:15.360Z,33.74
2022-09-07T10:49:19.448Z,33.43
2022-09-07T10:51:33.205Z,32.51
2022-09-07T10:53:42.177Z,32.45
2022-09-07T10:56:00.013Z,33.22
2022-09-07T10:59:01.452Z,33.30
2022-09-07T11:01:28.326Z,31.98
2022-09-07T11:03:56.036Z,31.38
2022-09-07T11:06:30.431Z,31.78
2022-09-07T11:11:12.319Z,30.77
2022-09-07T11:13:21.080Z,31.04
2022-09-07T11:15:50.682Z,31.47
2022-09-07T11:17:57.855Z,31.91
2022-09-07T11:20:18.191Z,31.98
2022-09-07T11:22:22.536Z,32.07
2022-09-07T11:24:31.446Z,32.94
2022-09-07T11:26:50.784Z,31.78
2022-09-07T11:31:46.188Z,30.88
2022-09-07T11:36:21.617Z,31.08
2022-09-07T11:38:29.665Z,31.05
2022-09-07T11:40:35.330Z,31.90
2022-09-07T11:42:52.669Z,32.23
2022-09-07T11:45:22.182Z,32.80
2022-09-07T11:47:59.411Z,32.51
2022-09-07T11:50:01.303Z,32.47
2022-09-07T11:52:08.489Z,31.12
2022-09-07T11:54:42.168Z,30.15
2022-09-07T11:56:49.389Z,31.03
2022-09-07T11:59:03.233Z,30.07
2022-09-07T12:01:27.304Z,30.71
2022-09-07T12:03:40.940Z,30.63
2022-09-07T12:06:00.377Z,30.08
2022-09-07T12:08:20.226Z,30.83
2022-09-07T12:10:42.649Z,30.01
2022-09-07T12:12:44.317Z,29.88
2022-09-07T12:15:03.544Z,30.29
2022-09-07T12:17:13.653Z,30.38
2022-09-07T12:19:15.523Z,29.60
2022-09-07T12:21:52.998Z,29.33
2022-09-07T12:23:54.839Z,29.88
2022-09-07T12:26:34.901Z,29.69
2022-09-07T12:28:56.593Z,30.25
2022-09-07T12:31:03.774Z,31.73
2022-09-07T12:33:26.989Z,31.61
2022-09-07T12:35:28.753Z,29.54
2022-09-07T12:37:36.966Z,29.94
2022-09-07T12:39:38.798Z,30.13
2022-09-07T12:41:44.645Z,30.38
2022-09-07T12:43:48.412Z,31.15
2022-09-07T12:45:52.328Z,30.23
2022-09-07T12:47:59.676Z,30.19
2022-09-07T12:50:28.481Z,30.05
2022-09-07T12:52:42.739Z,30.52
2022-09-07T12:55:10.007Z,30.62
2022-09-07T12:57:31.837Z,29.52
2022-09-07T12:59:57.771Z,31.12
2022-09-07T13:02:41.769Z,29.74
2022-09-07T13:05:11.800Z,30.21
2022-09-07T13:07:25.391Z,28.74
2022-09-07T13:09:35.481Z,29.99
2022-09-07T13:11:39.199Z,30.68
2022-09-07T13:16:05.935Z,30.40
2022-09-07T13:18:30.642Z,30.59
2022-09-07T13:20:37.534Z,30.68
2022-09-07T13:22:40.934Z,30.56
2022-09-07T13:24:50.387Z,29.66
2022-09-07T13:26:53.987Z,28.54
2022-09-07T13:29:03.991Z,29.06
2022-09-07T13:31:39.311Z,29.63
2022-09-07T13:33:49.905Z,29.94
2022-09-07T13:36:03.014Z,30.88
2022-09-07T13:38:05.324Z,29.53
2022-09-07T13:40:11.692Z,30.64
2022-09-07T13:42:19.702Z,30.42
2022-09-07T13:44:32.729Z,30.82
2022-09-07T13:46:53.398Z,31.47
2022-09-07T13:49:06.119Z,30.71
2022-09-07T13:51:34.403Z,30.19
2022-09-07T13:53:57.772Z,31.43
2022-09-07T13:56:08.315Z,31.97
2022-09-07T13:58:19.611Z,31.74
2022-09-07T14:00:21.420Z,31.00
2022-09-07T14:02:29.564Z,31.69
2022-09-07T14:04:44.360Z,32.02
2022-09-07T14:06:46.120Z,31.78
2022-09-07T14:08:50.243Z,31.37
2022-09-07T14:10:52.068Z,31.75
2022-09-07T14:13:12.150Z,31.31
2022-09-07T14:15:25.828Z,31.58
2022-09-07T14:17:27.946Z,31.19
2022-09-07T14:20:02.367Z,31.74
2022-09-07T14:22:13.549Z,31.79
2022-09-07T14:24:24.624Z,31.09
2022-09-07T14:26:26.455Z,31.34
2022-09-07T14:28:30.863Z,30.76
2022-09-07T14:30:33.434Z,31.31
2022-09-07T14:32:35.957Z,31.56
2022-09-07T14:34:38.212Z,32.02
2022-09-07T14:36:45.395Z,32.27
2022-09-07T14:39:05.240Z,31.85
2022-09-07T14:41:11.978Z,33.03
2022-09-07T14:43:30.630Z,32.36
2022-09-07T14:45:33.998Z,32.31
2022-09-07T14:47:35.983Z,32.22
2022-09-07T14:49:37.907Z,31.73
2022-09-07T14:51:44.553Z,32.37
2022-09-07T14:53:55.160Z,32.69
2022-09-07T14:56:10.045Z,32.33
2022-09-07T14:58:14.622Z,32.77
2022-09-07T15:00:31.472Z,31.88
2022-09-07T15:02:37.091Z,31.79
2022-09-07T15:04:39.025Z,31.82
2022-09-07T15:09:05.736Z,32.27
2022-09-07T15:13:36.142Z,32.31
2022-09-07T15:15:38.653Z,32.90
2022-09-07T15:17:43.961Z,32.61
2022-09-07T15:19:46.175Z,32.58
2022-09-07T15:21:48.011Z,32.06
2022-09-07T15:23:54.460Z,32.83
2022-09-07T15:25:56.343Z,33.13
2022-09-07T15:27:58.641Z,32.92
2022-09-07T15:30:00.400Z,33.10
2022-09-07T15:32:04.869Z,33.15
2022-09-07T15:34:10.349Z,32.98
2022-09-07T15:36:14.098Z,33.02
2022-09-07T15:41:22.021Z,33.16
2022-09-07T15:43:21.469Z,33.36
2022-09-07T15:45:32.746Z,33.47
2022-09-07T15:47:51.995Z,33.36
2022-09-07T15:49:54.858Z,34.01
2022-09-07T15:52:11.748Z,33.98
2022-09-07T15:54:15.914Z,34.14
2022-09-07T15:56:20.090Z,34.25
2022-09-07T15:58:22.283Z,34.52
2022-09-07T16:00:24.287Z,35.49
2022-09-07T16:04:48.286Z,36.47
2022-09-07T16:06:50.097Z,36.39
2022-09-07T16:08:52.410Z,36.86
2022-09-07T16:10:55.892Z,37.23
2022-09-07T16:13:16.768Z,37.94
2022-09-07T16:15:18.815Z,37.73
2022-09-07T16:17:34.722Z,38.00
2022-09-07T16:19:41.108Z,38.08
2022-09-07T16:21:43.047Z,38.36
2022-09-07T16:23:48.051Z,38.53
2022-09-07T16:26:01.423Z,39.03
2022-09-07T16:28:05.808Z,39.10
2022-09-07T16:30:08.359Z,39.13
2022-09-07T16:34:32.885Z,39.51
2022-09-07T16:36:34.663Z,39.70
2022-09-07T16:38:44.445Z,39.79
2022-09-07T16:40:46.874Z,39.94
2022-09-07T16:42:48.651Z,39.76
2022-09-07T16:44:52.182Z,39.90
2022-09-07T16:46:54.180Z,39.73
2022-09-07T16:48:55.968Z,39.97
2022-09-07T16:51:01.910Z,40.70
2022-09-07T16:53:04.207Z,41.93
2022-09-07T16:55:06.129Z,42.11
2022-09-07T16:57:07.916Z,42.87
2022-09-07T16:59:12.559Z,43.18
2022-09-07T17:01:16.891Z,43.64
2022-09-07T17:03:18.648Z,43.90
2022-09-07T17:05:21.853Z,44.30
2022-09-07T17:07:23.657Z,45.86
2022-09-07T17:09:25.461Z,45.89
2022-09-07T17:11:30.656Z,47.01
2022-09-07T17:13:33.685Z,49.26
2022-09-07T17:15:36.106Z,49.25
2022-09-07T17:17:37.906Z,51.91
2022-09-07T17:19:40.985Z,53.68
2022-09-07T17:21:42.927Z,53.26
2022-09-07T17:23:53.994Z,52.08
2022-09-07T17:26:08.320Z,52.58
2022-09-07T17:28:10.052Z,55.50
2022-09-07T17:30:12.452Z,55.90
2022-09-07T17:32:29.627Z,60.47
2022-09-07T17:34:31.584Z,60.02
2022-09-07T17:36:33.401Z,62.15
2022-09-07T17:40:57.550Z,69.05
2022-09-07T17:45:21.023Z,69.86
2022-09-07T17:47:22.895Z,71.16
2022-09-07T17:49:24.657Z,69.81
2022-09-07T17:51:28.905Z,69.32
2022-09-07T17:53:30.708Z,70.03
2022-09-07T17:55:32.491Z,70.65
2022-09-07T17:57:34.219Z,72.00
2022-09-07T18:01:58.073Z,76.72
2022-09-07T18:03:59.833Z,76.12
2022-09-07T18:06:02.070Z,74.96
2022-09-07T18:08:03.954Z,76.98
2022-09-07T18:10:06.052Z,78.81
2022-09-07T18:12:07.935Z,78.07
2022-09-07T18:14:09.728Z,77.19
2022-09-07T18:16:29.663Z,78.24
2022-09-07T18:18:31.477Z,79.19
2022-09-07T18:20:34.460Z,79.21
2022-09-07T18:22:36.321Z,82.70
2022-09-07T18:24:38.112Z,81.53
2022-09-07T18:26:39.874Z,84.97
2022-09-07T18:31:08.155Z,86.82
2022-09-07T18:33:11.605Z,86.54
2022-09-07T18:35:13.464Z,87.78
2022-09-07T18:37:15.231Z,86.76
2022-09-07T18:39:17.410Z,85.56
2022-09-07T18:41:19.867Z,85.61
2022-09-07T18:43:21.584Z,86.51
2022-09-07T18:45:30.455Z,86.28
2022-09-07T18:47:32.206Z,87.83
2022-09-07T18:49:37.745Z,88.16
2022-09-07T18:54:01.307Z,87.93
2022-09-07T18:56:08.097Z,88.68
2022-09-07T18:58:09.892Z,89.52
2022-09-07T19:00:12.889Z,88.55
2022-09-07T19:02:14.753Z,90.27
2022-09-07T19:04:16.637Z,91.07
2022-09-07T19:06:18.432Z,90.90
2022-09-07T19:08:20.197Z,91.01
2022-09-07T19:10:22.012Z,92.08
2022-09-07T19:12:23.924Z,92.44
2022-09-07T19:14:27.434Z,93.75
2022-09-07T19:16:29.325Z,94.67
2022-09-07T19:18:36.166Z,93.21
2022-09-07T19:20:38.154Z,93.04
2022-09-07T19:22:39.935Z,94.91
2022-09-07T19:24:41.668Z,93.83
2022-09-07T19:26:47.960Z,92.94
2022-09-07T19:28:54.311Z,92.61
2022-09-07T19:31:01.223Z,95.31
2022-09-07T19:33:04.502Z,95.60
2022-09-07T19:35:06.833Z,94.98
2022-09-07T19:37:10.620Z,95.54
2022-09-07T19:39:12.418Z,95.54
2022-09-07T19:41:14.365Z,95.77
2022-09-07T19:43:16.218Z,96.11
2022-09-07T19:45:17.947Z,97.07
2022-09-07T19:47:20.413Z,97.47
2022-09-07T19:49:22.360Z,97.90
2022-09-07T19:51:24.114Z,98.41
2022-09-07T19:53:25.865Z,98.19
2022-09-07T19:55:27.599Z,96.25
2022-09-07T19:57:29.789Z,94.89
2022-09-07T19:59:33.951Z,94.99
2022-09-07T20:01:36.398Z,97.01
2022-09-07T20:03:39.157Z,96.93
2022-09-07T20:05:41.236Z,97.35
2022-09-07T20:07:43.310Z,97.20
2022-09-07T20:09:45.067Z,97.19
2022-09-07T20:11:47.697Z,98.98
2022-09-07T20:13:49.609Z,99.51
2022-09-07T20:15:51.437Z,99.86
2022-09-07T20:17:53.191Z,100.00
2022-09-07T20:19:54.918Z,100.00
2022-09-07T20:21:56.692Z,99.62
2022-09-07T20:23:58.421Z,100.00
2022-09-07T20:26:02.608Z,98.51
2022-09-07T20:28:04.339Z,97.79
2022-09-07T20:30:06.739Z,97.32
2022-09-07T20:32:08.529Z,98.28
2022-09-07T20:34:11.125Z,97.92
2022-09-07T20:36:17.990Z,98.30
2022-09-07T20:38:20.038Z,97.74
2022-09-07T20:40:21.846Z,96.99
2022-09-07T20:42:23.629Z,96.36
2022-09-07T20:44:25.423Z,95.19
2022-09-07T20:46:28.665Z,95.38
2022-09-07T20:48:30.625Z,95.64
2022-09-07T20:50:32.348Z,96.52
2022-09-07T20:52:34.071Z,97.80
2022-09-07T20:54:35.843Z,98.21
2022-09-07T20:56:37.713Z,97.31
2022-09-07T20:58:40.265Z,97.97
2022-09-07T21:00:42.079Z,98.67
2022-09-07T21:02:43.898Z,99.19
2022-09-07T21:04:45.651Z,100.00
2022-09-07T21:06:47.430Z,100.00
2022-09-07T21:08:50.323Z,99.45
2022-09-07T21:10:52.095Z,99.21
2022-09-07T21:12:54.589Z,98.81
2022-09-07T21:14:56.383Z,99.35
2022-09-07T21:16:58.111Z,99.13
2022-09-07T21:19:01.213Z,98.80
2022-09-07T21:21:19.386Z,100.00
2022-09-07T21:23:22.943Z,99.03
2022-09-07T21:25:24.774Z,98.99
2022-09-07T21:27:26.536Z,99.17
2022-09-07T21:29:28.277Z,99.49
2022-09-07T21:31:31.377Z,100.00
2022-09-07T21:33:35.258Z,100.00
2022-09-07T21:35:37.006Z,100.00
2022-09-07T21:37:38.780Z,99.65
2022-09-07T21:39:40.580Z,97.87
2022-09-07T21:41:43.324Z,97.83
2022-09-07T21:43:45.475Z,97.60
2022-09-07T21:45:47.212Z,97.95
2022-09-07T21:47:48.966Z,97.65
2022-09-07T21:49:51.287Z,98.66
2022-09-07T21:51:53.019Z,98.46
2022-09-07T21:53:56.658Z,99.78
2022-09-07T21:56:03.685Z,99.53
2022-09-07T21:58:05.463Z,99.77
2022-09-07T22:00:08.082Z,99.75
2022-09-07T22:02:09.859Z,100.00
2022-09-07T22:04:11.633Z,100.00
2022-09-07T22:06:14.291Z,100.00
2022-09-07T22:08:16.590Z,100.00
2022-09-07T22:10:18.405Z,100.00
2022-09-07T22:12:20.154Z,100.00
2022-09-07T22:14:22.024Z,99.84
2022-09-07T22:16:24.469Z,99.36
2022-09-07T22:18:26.270Z,94.23
2022-09-07T22:20:28.029Z,93.48
2022-09-07T22:22:29.770Z,88.23
2022-09-07T22:24:31.544Z,86.00
2022-09-07T22:26:35.869Z,89.27
2022-09-07T22:28:38.844Z,88.87
2022-09-07T22:30:40.581Z,90.98
2022-09-07T22:32:50.089Z,90.50
2022-09-07T22:34:51.856Z,90.36
2022-09-07T22:36:53.583Z,90.89
2022-09-07T22:38:57.946Z,91.74
2022-09-07T22:41:06.837Z,89.35
2022-09-07T22:43:08.606Z,90.77
2022-09-07T22:45:10.584Z,89.21
2022-09-07T22:47:12.345Z,88.92
2022-09-07T22:49:16.193Z,90.58
2022-09-07T22:51:17.964Z,88.54
2022-09-07T22:53:19.736Z,88.94
2022-09-07T22:55:21.517Z,87.35
2022-09-07T22:57:23.256Z,90.62
2022-09-07T22:59:25.012Z,89.25
2022-09-07T23:01:29.093Z,88.44
2022-09-07T23:03:32.507Z,85.29
2022-09-07T23:05:37.913Z,84.16
2022-09-07T23:07:39.675Z,88.88
2022-09-07T23:09:41.410Z,89.78
2022-09-07T23:11:44.151Z,89.05
2022-09-07T23:13:46.003Z,90.69
2022-09-07T23:15:48.791Z,90.77
2022-09-07T23:17:51.499Z,90.66
2022-09-07T23:19:53.255Z,90.13
2022-09-07T23:21:55.063Z,92.36
2022-09-07T23:24:04.516Z,92.24
2022-09-07T23:26:06.639Z,90.53
2022-09-07T23:28:11.906Z,91.05
2022-09-07T23:30:13.799Z,91.24
2022-09-07T23:32:15.601Z,91.13
2022-09-07T23:34:17.450Z,92.31
2022-09-07T23:36:19.891Z,92.02
2022-09-07T23:38:21.671Z,92.71
2022-09-07T23:40:23.556Z,91.79
2022-09-07T23:42:25.290Z,92.85
2022-09-07T23:44:27.064Z,92.58
2022-09-07T23:46:28.867Z,89.54
2022-09-07T23:48:30.982Z,90.97
2022-09-07T23:50:32.710Z,87.59
2022-09-07T23:52:34.729Z,91.61
2022-09-07T23:54:36.514Z,89.67
2022-09-07T23:56:38.241Z,90.54
2022-09-07T23:58:39.966Z,89.68
